Danforth, South Dakota
Current Conditions -  °F | °C
As of 1:55 AM on Sunday 26 Oct 2014 (Local Time) from KHON Reporting Station
Clear Clear  
Wind Chill: 39°   Ceiling: Unl
Heat Index: 44°   Visibility: 10mi
Dew Point: 31°   Wind: 9mph
Humidity: 60%   Direction: 130°SE
Pressure: 29.95"   Gusts: NA
Location:  44.3714°N, 98.681°W
Report Text: KHON 260655Z AUTO 13008KT 10SM CLR 07/M01 A2995 RMK AO2 SLP142 T00671006
Loading
Personal Weather Stations






























Interactive Weather Map New forecast layout! Learn more

10-Day Weather Forecast

Advertisements
Track Severe Weather on mobile